sensor_id;sensor_type;location;lat;lon;timestamp;P1;durP1;ratioP1;P2;durP2;ratioP2
5428;SDS011;2737;52.386;9.980;2023-03-18T00:00:46;4.27;;;1.73;;
5428;SDS011;2737;52.386;9.980;2023-03-18T00:03:13;3.20;;;1.40;;
5428;SDS011;2737;52.386;9.980;2023-03-18T00:05:41;5.67;;;2.30;;
5428;SDS011;2737;52.386;9.980;2023-03-18T00:08:10;3.27;;;1.70;;
5428;SDS011;2737;52.386;9.980;2023-03-18T00:10:37;4.53;;;2.00;;
5428;SDS011;2737;52.386;9.980;2023-03-18T00:13:04;2.73;;;1.90;;
5428;SDS011;2737;52.386;9.980;2023-03-18T00:15:31;2.50;;;1.80;;
5428;SDS011;2737;52.386;9.980;2023-03-18T00:17:58;4.40;;;1.80;;
5428;SDS011;2737;52.386;9.980;2023-03-18T00:20:25;3.37;;;1.77;;
5428;SDS011;2737;52.386;9.980;2023-03-18T00:23:03;2.57;;;1.50;;
5428;SDS011;2737;52.386;9.980;2023-03-18T00:25:33;5.50;;;2.00;;
5428;SDS011;2737;52.386;9.980;2023-03-18T00:28:01;3.83;;;1.80;;
5428;SDS011;2737;52.386;9.980;2023-03-18T00:30:28;5.57;;;1.87;;
5428;SDS011;2737;52.386;9.980;2023-03-18T00:32:55;4.20;;;1.73;;
5428;SDS011;2737;52.386;9.980;2023-03-18T00:35:23;6.60;;;2.13;;
5428;SDS011;2737;52.386;9.980;2023-03-18T00:37:52;3.30;;;1.83;;
5428;SDS011;2737;52.386;9.980;2023-03-18T00:40:19;2.40;;;1.40;;
5428;SDS011;2737;52.386;9.980;2023-03-18T00:42:55;5.70;;;1.90;;
5428;SDS011;2737;52.386;9.980;2023-03-18T00:45:32;5.30;;;1.80;;
5428;SDS011;2737;52.386;9.980;2023-03-18T00:48:02;2.60;;;1.77;;
5428;SDS011;2737;52.386;9.980;2023-03-18T00:50:29;3.07;;;1.67;;
5428;SDS011;2737;52.386;9.980;2023-03-18T00:52:56;3.90;;;2.03;;
5428;SDS011;2737;52.386;9.980;2023-03-18T00:55:23;3.57;;;1.80;;
5428;SDS011;2737;52.386;9.980;2023-03-18T00:57:51;4.53;;;1.70;;
5428;SDS011;2737;52.386;9.980;2023-03-18T01:00:20;4.90;;;2.07;;
5428;SDS011;2737;52.386;9.980;2023-03-18T01:02:49;5.30;;;2.30;;
5428;SDS011;2737;52.386;9.980;2023-03-18T01:05:16;5.77;;;2.00;;
5428;SDS011;2737;52.386;9.980;2023-03-18T01:07:44;4.97;;;1.63;;
5428;SDS011;2737;52.386;9.980;2023-03-18T01:10:11;7.67;;;1.70;;
5428;SDS011;2737;52.386;9.980;2023-03-18T01:12:40;3.53;;;1.37;;
5428;SDS011;2737;52.386;9.980;2023-03-18T01:15:07;4.20;;;1.73;;
5428;SDS011;2737;52.386;9.980;2023-03-18T01:17:39;9.73;;;1.90;;
5428;SDS011;2737;52.386;9.980;2023-03-18T01:20:07;6.17;;;2.60;;
5428;SDS011;2737;52.386;9.980;2023-03-18T01:22:35;2.20;;;1.73;;
5428;SDS011;2737;52.386;9.980;2023-03-18T01:25:03;5.00;;;1.97;;
5428;SDS011;2737;52.386;9.980;2023-03-18T01:27:32;4.20;;;1.73;;
5428;SDS011;2737;52.386;9.980;2023-03-18T01:29:59;4.40;;;1.93;;
5428;SDS011;2737;52.386;9.980;2023-03-18T01:32:27;6.40;;;2.23;;
5428;SDS011;2737;52.386;9.980;2023-03-18T01:34:55;6.73;;;2.20;;
5428;SDS011;2737;52.386;9.980;2023-03-18T01:37:22;5.23;;;1.70;;
5428;SDS011;2737;52.386;9.980;2023-03-18T01:39:49;6.77;;;2.00;;
5428;SDS011;2737;52.386;9.980;2023-03-18T01:42:17;7.47;;;2.27;;
5428;SDS011;2737;52.386;9.980;2023-03-18T01:44:45;2.37;;;1.60;;
5428;SDS011;2737;52.386;9.980;2023-03-18T01:47:12;6.03;;;2.40;;
5428;SDS011;2737;52.386;9.980;2023-03-18T01:49:42;7.43;;;2.30;;
5428;SDS011;2737;52.386;9.980;2023-03-18T01:52:13;5.07;;;2.33;;
5428;SDS011;2737;52.386;9.980;2023-03-18T01:54:44;4.77;;;2.20;;
5428;SDS011;2737;52.386;9.980;2023-03-18T01:57:13;4.77;;;2.17;;
5428;SDS011;2737;52.386;9.980;2023-03-18T01:59:42;4.00;;;1.90;;
5428;SDS011;2737;52.386;9.980;2023-03-18T02:02:13;5.27;;;1.97;;
5428;SDS011;2737;52.386;9.980;2023-03-18T02:04:42;5.30;;;2.77;;
5428;SDS011;2737;52.386;9.980;2023-03-18T02:07:14;4.30;;;2.10;;
5428;SDS011;2737;52.386;9.980;2023-03-18T02:09:42;6.13;;;2.10;;
5428;SDS011;2737;52.386;9.980;2023-03-18T02:12:10;3.43;;;2.03;;
5428;SDS011;2737;52.386;9.980;2023-03-18T02:14:40;5.27;;;2.73;;
5428;SDS011;2737;52.386;9.980;2023-03-18T02:17:09;8.53;;;2.60;;
5428;SDS011;2737;52.386;9.980;2023-03-18T02:19:43;5.40;;;2.60;;
5428;SDS011;2737;52.386;9.980;2023-03-18T02:22:21;8.03;;;2.30;;
5428;SDS011;2737;52.386;9.980;2023-03-18T02:24:54;5.60;;;2.33;;
5428;SDS011;2737;52.386;9.980;2023-03-18T02:27:31;4.03;;;2.07;;
5428;SDS011;2737;52.386;9.980;2023-03-18T02:30:02;5.10;;;1.70;;
5428;SDS011;2737;52.386;9.980;2023-03-18T02:32:32;3.10;;;2.10;;
5428;SDS011;2737;52.386;9.980;2023-03-18T02:35:02;10.50;;;2.30;;
5428;SDS011;2737;52.386;9.980;2023-03-18T02:37:33;4.40;;;2.33;;
5428;SDS011;2737;52.386;9.980;2023-03-18T02:40:10;4.60;;;1.83;;
5428;SDS011;2737;52.386;9.980;2023-03-18T02:42:43;5.37;;;2.50;;
5428;SDS011;2737;52.386;9.980;2023-03-18T02:45:12;4.20;;;2.07;;
5428;SDS011;2737;52.386;9.980;2023-03-18T02:47:49;6.53;;;2.60;;
5428;SDS011;2737;52.386;9.980;2023-03-18T02:50:18;3.57;;;2.30;;
5428;SDS011;2737;52.386;9.980;2023-03-18T02:52:45;7.60;;;2.80;;
5428;SDS011;2737;52.386;9.980;2023-03-18T02:55:12;3.30;;;2.07;;
5428;SDS011;2737;52.386;9.980;2023-03-18T02:57:39;3.27;;;2.50;;
5428;SDS011;2737;52.386;9.980;2023-03-18T03:00:08;4.03;;;2.10;;
5428;SDS011;2737;52.386;9.980;2023-03-18T03:02:37;5.10;;;2.30;;
5428;SDS011;2737;52.386;9.980;2023-03-18T03:05:04;5.23;;;1.83;;
5428;SDS011;2737;52.386;9.980;2023-03-18T03:07:33;5.90;;;2.53;;
5428;SDS011;2737;52.386;9.980;2023-03-18T03:10:01;5.13;;;2.20;;
5428;SDS011;2737;52.386;9.980;2023-03-18T03:12:28;5.90;;;2.20;;
5428;SDS011;2737;52.386;9.980;2023-03-18T03:14:56;3.00;;;2.10;;
5428;SDS011;2737;52.386;9.980;2023-03-18T03:17:24;4.50;;;2.90;;
5428;SDS011;2737;52.386;9.980;2023-03-18T03:19:51;4.23;;;2.43;;
5428;SDS011;2737;52.386;9.980;2023-03-18T03:22:18;8.00;;;2.80;;
5428;SDS011;2737;52.386;9.980;2023-03-18T03:24:45;5.27;;;2.60;;
5428;SDS011;2737;52.386;9.980;2023-03-18T03:27:12;3.50;;;2.23;;
5428;SDS011;2737;52.386;9.980;2023-03-18T03:29:39;13.13;;;2.93;;
5428;SDS011;2737;52.386;9.980;2023-03-18T03:32:07;6.37;;;3.20;;
5428;SDS011;2737;52.386;9.980;2023-03-18T03:34:36;8.67;;;3.63;;
5428;SDS011;2737;52.386;9.980;2023-03-18T03:37:03;5.80;;;3.20;;
5428;SDS011;2737;52.386;9.980;2023-03-18T03:39:31;10.23;;;3.80;;
5428;SDS011;2737;52.386;9.980;2023-03-18T03:41:58;9.37;;;4.80;;
5428;SDS011;2737;52.386;9.980;2023-03-18T03:44:25;11.60;;;5.83;;
5428;SDS011;2737;52.386;9.980;2023-03-18T03:46:52;8.00;;;5.67;;
5428;SDS011;2737;52.386;9.980;2023-03-18T03:49:19;10.73;;;5.60;;
5428;SDS011;2737;52.386;9.980;2023-03-18T03:51:47;12.03;;;5.53;;
5428;SDS011;2737;52.386;9.980;2023-03-18T03:54:15;12.40;;;5.97;;
5428;SDS011;2737;52.386;9.980;2023-03-18T03:56:43;16.63;;;6.37;;
5428;SDS011;2737;52.386;9.980;2023-03-18T03:59:10;14.80;;;6.73;;
5428;SDS011;2737;52.386;9.980;2023-03-18T04:01:37;10.20;;;6.50;;
5428;SDS011;2737;52.386;9.980;2023-03-18T04:04:04;13.90;;;7.00;;
5428;SDS011;2737;52.386;9.980;2023-03-18T04:06:31;14.10;;;6.10;;
5428;SDS011;2737;52.386;9.980;2023-03-18T04:08:59;10.20;;;5.83;;
5428;SDS011;2737;52.386;9.980;2023-03-18T04:11:28;13.50;;;6.10;;
5428;SDS011;2737;52.386;9.980;2023-03-18T04:13:55;13.83;;;6.77;;
5428;SDS011;2737;52.386;9.980;2023-03-18T04:16:22;17.47;;;6.77;;
5428;SDS011;2737;52.386;9.980;2023-03-18T04:18:49;12.63;;;6.30;;
5428;SDS011;2737;52.386;9.980;2023-03-18T04:21:16;12.53;;;6.07;;
5428;SDS011;2737;52.386;9.980;2023-03-18T04:23:43;10.57;;;6.27;;
5428;SDS011;2737;52.386;9.980;2023-03-18T04:26:12;7.93;;;5.17;;
5428;SDS011;2737;52.386;9.980;2023-03-18T04:28:40;9.23;;;5.17;;
5428;SDS011;2737;52.386;9.980;2023-03-18T04:31:06;15.80;;;6.10;;
5428;SDS011;2737;52.386;9.980;2023-03-18T04:33:34;9.80;;;6.27;;
5428;SDS011;2737;52.386;9.980;2023-03-18T04:36:01;10.57;;;5.67;;
5428;SDS011;2737;52.386;9.980;2023-03-18T04:38:28;10.10;;;5.63;;
5428;SDS011;2737;52.386;9.980;2023-03-18T04:40:55;10.00;;;6.53;;
5428;SDS011;2737;52.386;9.980;2023-03-18T04:43:23;17.40;;;6.30;;
5428;SDS011;2737;52.386;9.980;2023-03-18T04:45:50;7.00;;;5.10;;
5428;SDS011;2737;52.386;9.980;2023-03-18T04:48:17;14.93;;;5.77;;
5428;SDS011;2737;52.386;9.980;2023-03-18T04:50:44;8.40;;;5.37;;
5428;SDS011;2737;52.386;9.980;2023-03-18T04:53:11;9.40;;;5.50;;
5428;SDS011;2737;52.386;9.980;2023-03-18T04:55:38;10.87;;;5.27;;
5428;SDS011;2737;52.386;9.980;2023-03-18T04:58:05;12.03;;;5.10;;
5428;SDS011;2737;52.386;9.980;2023-03-18T05:00:34;7.80;;;5.47;;
5428;SDS011;2737;52.386;9.980;2023-03-18T05:03:02;10.83;;;4.53;;
5428;SDS011;2737;52.386;9.980;2023-03-18T05:05:29;9.07;;;5.47;;
5428;SDS011;2737;52.386;9.980;2023-03-18T05:07:56;16.17;;;5.40;;
5428;SDS011;2737;52.386;9.980;2023-03-18T05:10:24;14.27;;;5.77;;
5428;SDS011;2737;52.386;9.980;2023-03-18T05:12:51;8.93;;;5.80;;
5428;SDS011;2737;52.386;9.980;2023-03-18T05:15:18;9.70;;;5.50;;
5428;SDS011;2737;52.386;9.980;2023-03-18T05:17:46;11.50;;;5.50;;
5428;SDS011;2737;52.386;9.980;2023-03-18T05:20:13;11.73;;;4.63;;
5428;SDS011;2737;52.386;9.980;2023-03-18T05:22:40;13.03;;;5.53;;
5428;SDS011;2737;52.386;9.980;2023-03-18T05:25:08;9.90;;;5.50;;
5428;SDS011;2737;52.386;9.980;2023-03-18T05:27:36;9.40;;;4.53;;
5428;SDS011;2737;52.386;9.980;2023-03-18T05:30:04;8.67;;;5.30;;
5428;SDS011;2737;52.386;9.980;2023-03-18T05:32:32;10.63;;;5.47;;
5428;SDS011;2737;52.386;9.980;2023-03-18T05:35:00;13.57;;;4.83;;
5428;SDS011;2737;52.386;9.980;2023-03-18T05:37:28;8.63;;;4.50;;
5428;SDS011;2737;52.386;9.980;2023-03-18T05:39:55;8.33;;;4.87;;
5428;SDS011;2737;52.386;9.980;2023-03-18T05:42:22;9.00;;;4.70;;
5428;SDS011;2737;52.386;9.980;2023-03-18T05:44:49;7.90;;;4.70;;
5428;SDS011;2737;52.386;9.980;2023-03-18T05:47:16;10.00;;;5.50;;
5428;SDS011;2737;52.386;9.980;2023-03-18T05:49:43;9.20;;;5.67;;
5428;SDS011;2737;52.386;9.980;2023-03-18T05:52:12;10.83;;;5.50;;
5428;SDS011;2737;52.386;9.980;2023-03-18T05:54:41;7.40;;;5.10;;
5428;SDS011;2737;52.386;9.980;2023-03-18T05:57:08;9.20;;;4.60;;
5428;SDS011;2737;52.386;9.980;2023-03-18T05:59:35;6.30;;;4.40;;
5428;SDS011;2737;52.386;9.980;2023-03-18T06:02:02;10.60;;;4.90;;
5428;SDS011;2737;52.386;9.980;2023-03-18T06:04:29;7.77;;;4.57;;
5428;SDS011;2737;52.386;9.980;2023-03-18T06:06:57;8.50;;;5.40;;
5428;SDS011;2737;52.386;9.980;2023-03-18T06:09:26;8.83;;;4.73;;
5428;SDS011;2737;52.386;9.980;2023-03-18T06:11:54;10.40;;;3.90;;
5428;SDS011;2737;52.386;9.980;2023-03-18T06:14:22;10.80;;;4.50;;
5428;SDS011;2737;52.386;9.980;2023-03-18T06:16:53;12.47;;;4.50;;
5428;SDS011;2737;52.386;9.980;2023-03-18T06:19:20;5.57;;;4.00;;
5428;SDS011;2737;52.386;9.980;2023-03-18T06:21:47;8.53;;;4.50;;
5428;SDS011;2737;52.386;9.980;2023-03-18T06:24:15;11.50;;;4.97;;
5428;SDS011;2737;52.386;9.980;2023-03-18T06:26:43;7.17;;;4.37;;
5428;SDS011;2737;52.386;9.980;2023-03-18T06:29:10;14.50;;;4.80;;
5428;SDS011;2737;52.386;9.980;2023-03-18T06:31:37;10.97;;;4.70;;
5428;SDS011;2737;52.386;9.980;2023-03-18T06:34:04;6.50;;;4.17;;
5428;SDS011;2737;52.386;9.980;2023-03-18T06:36:31;7.63;;;3.87;;
5428;SDS011;2737;52.386;9.980;2023-03-18T06:38:58;6.33;;;4.03;;
5428;SDS011;2737;52.386;9.980;2023-03-18T06:41:25;5.00;;;3.60;;
5428;SDS011;2737;52.386;9.980;2023-03-18T06:43:54;11.70;;;3.83;;
5428;SDS011;2737;52.386;9.980;2023-03-18T06:46:21;9.50;;;3.93;;
5428;SDS011;2737;52.386;9.980;2023-03-18T06:48:49;10.73;;;3.93;;
5428;SDS011;2737;52.386;9.980;2023-03-18T06:51:16;5.83;;;3.70;;
5428;SDS011;2737;52.386;9.980;2023-03-18T06:53:44;7.97;;;4.10;;
5428;SDS011;2737;52.386;9.980;2023-03-18T06:56:11;5.30;;;3.70;;
5428;SDS011;2737;52.386;9.980;2023-03-18T06:58:40;6.53;;;3.47;;
5428;SDS011;2737;52.386;9.980;2023-03-18T07:01:08;8.93;;;4.27;;
5428;SDS011;2737;52.386;9.980;2023-03-18T07:03:36;9.30;;;3.90;;
5428;SDS011;2737;52.386;9.980;2023-03-18T07:06:05;9.80;;;3.20;;
5428;SDS011;2737;52.386;9.980;2023-03-18T07:08:34;7.60;;;3.63;;
5428;SDS011;2737;52.386;9.980;2023-03-18T07:11:01;5.87;;;3.80;;
5428;SDS011;2737;52.386;9.980;2023-03-18T07:13:29;12.47;;;4.17;;
5428;SDS011;2737;52.386;9.980;2023-03-18T07:15:56;8.60;;;3.77;;
5428;SDS011;2737;52.386;9.980;2023-03-18T07:18:25;8.37;;;3.90;;
5428;SDS011;2737;52.386;9.980;2023-03-18T07:20:53;9.23;;;4.23;;
5428;SDS011;2737;52.386;9.980;2023-03-18T07:23:20;8.17;;;3.77;;
5428;SDS011;2737;52.386;9.980;2023-03-18T07:25:47;11.10;;;3.63;;
5428;SDS011;2737;52.386;9.980;2023-03-18T07:28:14;6.03;;;3.67;;
5428;SDS011;2737;52.386;9.980;2023-03-18T07:30:41;6.90;;;3.50;;
5428;SDS011;2737;52.386;9.980;2023-03-18T07:33:09;15.53;;;4.17;;
5428;SDS011;2737;52.386;9.980;2023-03-18T07:35:37;8.47;;;3.30;;
5428;SDS011;2737;52.386;9.980;2023-03-18T07:38:05;8.60;;;3.97;;
5428;SDS011;2737;52.386;9.980;2023-03-18T07:40:32;5.20;;;3.60;;
5428;SDS011;2737;52.386;9.980;2023-03-18T07:42:59;5.40;;;3.00;;
5428;SDS011;2737;52.386;9.980;2023-03-18T07:45:26;10.77;;;3.47;;
5428;SDS011;2737;52.386;9.980;2023-03-18T07:47:54;6.03;;;2.80;;
5428;SDS011;2737;52.386;9.980;2023-03-18T07:50:21;8.00;;;3.70;;
5428;SDS011;2737;52.386;9.980;2023-03-18T07:52:49;5.60;;;3.00;;
5428;SDS011;2737;52.386;9.980;2023-03-18T07:55:17;6.70;;;3.70;;
5428;SDS011;2737;52.386;9.980;2023-03-18T07:57:44;8.10;;;3.23;;
5428;SDS011;2737;52.386;9.980;2023-03-18T08:00:11;5.80;;;2.70;;
5428;SDS011;2737;52.386;9.980;2023-03-18T08:02:39;5.63;;;3.03;;
5428;SDS011;2737;52.386;9.980;2023-03-18T08:05:07;5.33;;;2.90;;
5428;SDS011;2737;52.386;9.980;2023-03-18T08:07:35;6.83;;;2.97;;
5428;SDS011;2737;52.386;9.980;2023-03-18T08:10:04;5.93;;;3.17;;
5428;SDS011;2737;52.386;9.980;2023-03-18T08:12:33;10.13;;;3.10;;
5428;SDS011;2737;52.386;9.980;2023-03-18T08:15:00;7.90;;;3.53;;
5428;SDS011;2737;52.386;9.980;2023-03-18T08:17:27;9.67;;;3.40;;
5428;SDS011;2737;52.386;9.980;2023-03-18T08:19:54;6.20;;;3.30;;
5428;SDS011;2737;52.386;9.980;2023-03-18T08:22:21;5.77;;;3.23;;
5428;SDS011;2737;52.386;9.980;2023-03-18T08:24:49;9.30;;;3.33;;
5428;SDS011;2737;52.386;9.980;2023-03-18T08:27:19;5.93;;;3.13;;
5428;SDS011;2737;52.386;9.980;2023-03-18T08:29:46;5.63;;;3.20;;
5428;SDS011;2737;52.386;9.980;2023-03-18T08:32:14;6.07;;;3.03;;
5428;SDS011;2737;52.386;9.980;2023-03-18T08:34:41;8.73;;;3.43;;
5428;SDS011;2737;52.386;9.980;2023-03-18T08:37:08;5.57;;;3.10;;
5428;SDS011;2737;52.386;9.980;2023-03-18T08:39:36;5.57;;;3.30;;
5428;SDS011;2737;52.386;9.980;2023-03-18T08:42:03;5.70;;;3.03;;
5428;SDS011;2737;52.386;9.980;2023-03-18T08:44:32;3.83;;;2.47;;
5428;SDS011;2737;52.386;9.980;2023-03-18T08:46:59;6.60;;;3.20;;
5428;SDS011;2737;52.386;9.980;2023-03-18T08:49:26;6.20;;;2.93;;
5428;SDS011;2737;52.386;9.980;2023-03-18T08:51:54;4.63;;;2.70;;
5428;SDS011;2737;52.386;9.980;2023-03-18T08:54:21;6.63;;;3.10;;
5428;SDS011;2737;52.386;9.980;2023-03-18T08:56:48;6.90;;;3.13;;
5428;SDS011;2737;52.386;9.980;2023-03-18T08:59:16;8.40;;;3.07;;
5428;SDS011;2737;52.386;9.980;2023-03-18T09:01:45;9.10;;;3.10;;
5428;SDS011;2737;52.386;9.980;2023-03-18T09:04:13;8.73;;;3.23;;
5428;SDS011;2737;52.386;9.980;2023-03-18T09:06:40;6.83;;;3.37;;
5428;SDS011;2737;52.386;9.980;2023-03-18T09:09:07;5.30;;;3.53;;
5428;SDS011;2737;52.386;9.980;2023-03-18T09:11:35;9.93;;;3.40;;
5428;SDS011;2737;52.386;9.980;2023-03-18T09:14:03;6.80;;;3.50;;
5428;SDS011;2737;52.386;9.980;2023-03-18T09:16:30;5.07;;;2.80;;
5428;SDS011;2737;52.386;9.980;2023-03-18T09:18:59;6.53;;;3.40;;
5428;SDS011;2737;52.386;9.980;2023-03-18T09:21:26;3.97;;;3.40;;
5428;SDS011;2737;52.386;9.980;2023-03-18T09:23:53;5.07;;;3.30;;
5428;SDS011;2737;52.386;9.980;2023-03-18T09:26:20;5.33;;;3.87;;
5428;SDS011;2737;52.386;9.980;2023-03-18T09:28:47;6.90;;;3.60;;
5428;SDS011;2737;52.386;9.980;2023-03-18T09:31:14;7.93;;;3.53;;
5428;SDS011;2737;52.386;9.980;2023-03-18T09:33:42;8.60;;;3.37;;
5428;SDS011;2737;52.386;9.980;2023-03-18T09:36:10;4.00;;;3.00;;
5428;SDS011;2737;52.386;9.980;2023-03-18T09:38:37;9.87;;;3.77;;
5428;SDS011;2737;52.386;9.980;2023-03-18T09:41:06;5.80;;;2.93;;
5428;SDS011;2737;52.386;9.980;2023-03-18T09:43:47;5.07;;;3.27;;
5428;SDS011;2737;52.386;9.980;2023-03-18T09:46:21;8.37;;;3.37;;
5428;SDS011;2737;52.386;9.980;2023-03-18T09:49:13;8.00;;;3.40;;
5428;SDS011;2737;52.386;9.980;2023-03-18T09:52:02;6.50;;;2.80;;
5428;SDS011;2737;52.386;9.980;2023-03-18T09:54:39;3.90;;;2.90;;
5428;SDS011;2737;52.386;9.980;2023-03-18T09:57:10;7.50;;;3.67;;
5428;SDS011;2737;52.386;9.980;2023-03-18T09:59:44;7.37;;;3.00;;
5428;SDS011;2737;52.386;9.980;2023-03-18T10:02:17;3.87;;;2.97;;
5428;SDS011;2737;52.386;9.980;2023-03-18T10:04:49;10.10;;;3.33;;
5428;SDS011;2737;52.386;9.980;2023-03-18T10:07:22;4.97;;;2.93;;
5428;SDS011;2737;52.386;9.980;2023-03-18T10:09:54;7.33;;;3.17;;
5428;SDS011;2737;52.386;9.980;2023-03-18T10:12:27;6.27;;;3.23;;
5428;SDS011;2737;52.386;9.980;2023-03-18T10:15:00;4.50;;;2.47;;
5428;SDS011;2737;52.386;9.980;2023-03-18T10:17:34;10.20;;;2.97;;
5428;SDS011;2737;52.386;9.980;2023-03-18T10:20:08;4.70;;;3.00;;
5428;SDS011;2737;52.386;9.980;2023-03-18T10:22:48;6.67;;;3.00;;
5428;SDS011;2737;52.386;9.980;2023-03-18T10:25:24;5.60;;;3.37;;
5428;SDS011;2737;52.386;9.980;2023-03-18T10:27:58;10.30;;;3.10;;
5428;SDS011;2737;52.386;9.980;2023-03-18T10:30:37;6.83;;;3.23;;
5428;SDS011;2737;52.386;9.980;2023-03-18T10:33:16;7.13;;;3.23;;
5428;SDS011;2737;52.386;9.980;2023-03-18T10:35:53;4.70;;;3.13;;
5428;SDS011;2737;52.386;9.980;2023-03-18T10:38:30;5.00;;;3.27;;
5428;SDS011;2737;52.386;9.980;2023-03-18T10:41:01;6.03;;;3.17;;
5428;SDS011;2737;52.386;9.980;2023-03-18T10:43:38;4.10;;;3.00;;
5428;SDS011;2737;52.386;9.980;2023-03-18T10:46:06;4.90;;;2.80;;
5428;SDS011;2737;52.386;9.980;2023-03-18T10:48:37;8.40;;;3.10;;
5428;SDS011;2737;52.386;9.980;2023-03-18T10:51:08;4.80;;;2.83;;
5428;SDS011;2737;52.386;9.980;2023-03-18T10:53:45;5.43;;;2.67;;
5428;SDS011;2737;52.386;9.980;2023-03-18T10:56:18;7.60;;;3.23;;
5428;SDS011;2737;52.386;9.980;2023-03-18T10:58:46;4.60;;;2.20;;
5428;SDS011;2737;52.386;9.980;2023-03-18T11:01:15;4.20;;;1.90;;
5428;SDS011;2737;52.386;9.980;2023-03-18T11:03:44;5.13;;;2.50;;
5428;SDS011;2737;52.386;9.980;2023-03-18T11:06:16;8.60;;;3.17;;
5428;SDS011;2737;52.386;9.980;2023-03-18T11:08:51;3.90;;;1.90;;
5428;SDS011;2737;52.386;9.980;2023-03-18T11:11:26;4.60;;;2.00;;
5428;SDS011;2737;52.386;9.980;2023-03-18T11:13:56;5.30;;;1.93;;
5428;SDS011;2737;52.386;9.980;2023-03-18T11:16:28;2.63;;;2.10;;
5428;SDS011;2737;52.386;9.980;2023-03-18T11:19:01;5.47;;;2.60;;
5428;SDS011;2737;52.386;9.980;2023-03-18T11:21:33;4.07;;;2.50;;
5428;SDS011;2737;52.386;9.980;2023-03-18T11:24:07;5.87;;;2.40;;
5428;SDS011;2737;52.386;9.980;2023-03-18T11:27:00;5.63;;;3.00;;
5428;SDS011;2737;52.386;9.980;2023-03-18T11:29:29;3.33;;;1.97;;
5428;SDS011;2737;52.386;9.980;2023-03-18T11:31:58;4.23;;;2.10;;
5428;SDS011;2737;52.386;9.980;2023-03-18T11:34:26;4.30;;;2.20;;
5428;SDS011;2737;52.386;9.980;2023-03-18T11:36:55;4.27;;;2.67;;
5428;SDS011;2737;52.386;9.980;2023-03-18T11:39:27;3.63;;;1.90;;
5428;SDS011;2737;52.386;9.980;2023-03-18T11:41:56;3.10;;;2.20;;
5428;SDS011;2737;52.386;9.980;2023-03-18T11:44:28;5.10;;;2.20;;
5428;SDS011;2737;52.386;9.980;2023-03-18T11:46:59;4.33;;;2.37;;
5428;SDS011;2737;52.386;9.980;2023-03-18T11:49:29;4.97;;;2.67;;
5428;SDS011;2737;52.386;9.980;2023-03-18T11:55:14;3.93;;;2.10;;
5428;SDS011;2737;52.386;9.980;2023-03-18T11:57:56;6.13;;;2.63;;
5428;SDS011;2737;52.386;9.980;2023-03-18T12:00:41;4.63;;;2.07;;
5428;SDS011;2737;52.386;9.980;2023-03-18T12:03:28;3.90;;;1.93;;
5428;SDS011;2737;52.386;9.980;2023-03-18T12:06:15;2.70;;;1.63;;
5428;SDS011;2737;52.386;9.980;2023-03-18T12:08:49;3.97;;;2.00;;
5428;SDS011;2737;52.386;9.980;2023-03-18T12:11:38;3.07;;;1.80;;
5428;SDS011;2737;52.386;9.980;2023-03-18T12:14:18;2.80;;;2.20;;
5428;SDS011;2737;52.386;9.980;2023-03-18T12:16:55;3.93;;;2.00;;
5428;SDS011;2737;52.386;9.980;2023-03-18T12:19:45;5.87;;;2.50;;
5428;SDS011;2737;52.386;9.980;2023-03-18T12:22:43;4.50;;;2.23;;
5428;SDS011;2737;52.386;9.980;2023-03-18T12:25:33;4.37;;;1.80;;
5428;SDS011;2737;52.386;9.980;2023-03-18T12:28:15;6.97;;;1.87;;
5428;SDS011;2737;52.386;9.980;2023-03-18T12:31:00;5.50;;;2.03;;
5428;SDS011;2737;52.386;9.980;2023-03-18T12:33:45;2.17;;;1.87;;
5428;SDS011;2737;52.386;9.980;2023-03-18T12:36:22;5.03;;;1.83;;
5428;SDS011;2737;52.386;9.980;2023-03-18T12:39:07;2.00;;;1.80;;
5428;SDS011;2737;52.386;9.980;2023-03-18T12:42:07;5.13;;;2.20;;
5428;SDS011;2737;52.386;9.980;2023-03-18T12:44:50;2.80;;;1.67;;
5428;SDS011;2737;52.386;9.980;2023-03-18T12:47:24;4.50;;;1.73;;
5428;SDS011;2737;52.386;9.980;2023-03-18T12:49:56;3.60;;;2.10;;
5428;SDS011;2737;52.386;9.980;2023-03-18T12:52:28;3.40;;;2.17;;
5428;SDS011;2737;52.386;9.980;2023-03-18T12:55:01;1.80;;;1.70;;
5428;SDS011;2737;52.386;9.980;2023-03-18T12:57:34;3.50;;;2.33;;
5428;SDS011;2737;52.386;9.980;2023-03-18T13:00:15;3.50;;;1.93;;
5428;SDS011;2737;52.386;9.980;2023-03-18T13:02:51;2.20;;;1.77;;
5428;SDS011;2737;52.386;9.980;2023-03-18T13:05:33;3.97;;;1.93;;
5428;SDS011;2737;52.386;9.980;2023-03-18T13:08:15;3.90;;;1.83;;
5428;SDS011;2737;52.386;9.980;2023-03-18T13:11:08;5.17;;;1.87;;
5428;SDS011;2737;52.386;9.980;2023-03-18T13:13:39;4.07;;;1.70;;
5428;SDS011;2737;52.386;9.980;2023-03-18T13:16:12;2.63;;;1.70;;
5428;SDS011;2737;52.386;9.980;2023-03-18T13:18:41;2.87;;;1.93;;
5428;SDS011;2737;52.386;9.980;2023-03-18T13:21:12;2.03;;;1.53;;
5428;SDS011;2737;52.386;9.980;2023-03-18T13:24:04;1.57;;;1.40;;
5428;SDS011;2737;52.386;9.980;2023-03-18T13:27:05;3.90;;;2.10;;
5428;SDS011;2737;52.386;9.980;2023-03-18T13:29:45;8.33;;;2.70;;
5428;SDS011;2737;52.386;9.980;2023-03-18T13:32:23;4.47;;;2.30;;
5428;SDS011;2737;52.386;9.980;2023-03-18T13:35:05;4.50;;;2.10;;
5428;SDS011;2737;52.386;9.980;2023-03-18T13:38:01;2.77;;;2.20;;
5428;SDS011;2737;52.386;9.980;2023-03-18T13:40:41;2.67;;;1.90;;
5428;SDS011;2737;52.386;9.980;2023-03-18T13:43:20;3.27;;;1.67;;
5428;SDS011;2737;52.386;9.980;2023-03-18T13:45:50;2.90;;;1.70;;
5428;SDS011;2737;52.386;9.980;2023-03-18T13:48:21;4.43;;;1.80;;
5428;SDS011;2737;52.386;9.980;2023-03-18T13:50:55;3.77;;;1.67;;
5428;SDS011;2737;52.386;9.980;2023-03-18T13:53:24;2.90;;;2.00;;
5428;SDS011;2737;52.386;9.980;2023-03-18T13:56:01;2.87;;;1.97;;
5428;SDS011;2737;52.386;9.980;2023-03-18T13:58:32;4.03;;;1.70;;
5428;SDS011;2737;52.386;9.980;2023-03-18T14:06:54;6.37;;;2.67;;
5428;SDS011;2737;52.386;9.980;2023-03-18T14:09:33;2.60;;;1.70;;
5428;SDS011;2737;52.386;9.980;2023-03-18T14:12:02;2.73;;;1.50;;
5428;SDS011;2737;52.386;9.980;2023-03-18T14:17:46;2.83;;;1.87;;
5428;SDS011;2737;52.386;9.980;2023-03-18T14:20:22;3.33;;;1.53;;
5428;SDS011;2737;52.386;9.980;2023-03-18T14:23:17;2.73;;;1.40;;
5428;SDS011;2737;52.386;9.980;2023-03-18T14:26:04;5.93;;;1.50;;
5428;SDS011;2737;52.386;9.980;2023-03-18T14:28:44;2.50;;;1.57;;
5428;SDS011;2737;52.386;9.980;2023-03-18T14:31:14;1.60;;;1.47;;
5428;SDS011;2737;52.386;9.980;2023-03-18T14:33:49;1.70;;;1.60;;
5428;SDS011;2737;52.386;9.980;2023-03-18T14:39:46;2.97;;;1.37;;
5428;SDS011;2737;52.386;9.980;2023-03-18T14:42:27;3.00;;;1.70;;
5428;SDS011;2737;52.386;9.980;2023-03-18T14:45:05;1.60;;;1.23;;
5428;SDS011;2737;52.386;9.980;2023-03-18T14:47:42;2.40;;;1.23;;
5428;SDS011;2737;52.386;9.980;2023-03-18T14:50:16;1.43;;;1.10;;
5428;SDS011;2737;52.386;9.980;2023-03-18T14:52:50;2.20;;;1.40;;
5428;SDS011;2737;52.386;9.980;2023-03-18T14:55:22;2.07;;;1.70;;
5428;SDS011;2737;52.386;9.980;2023-03-18T14:57:52;8.27;;;2.40;;
5428;SDS011;2737;52.386;9.980;2023-03-18T15:00:20;2.30;;;1.30;;
5428;SDS011;2737;52.386;9.980;2023-03-18T15:02:49;3.03;;;1.40;;
5428;SDS011;2737;52.386;9.980;2023-03-18T15:05:24;2.73;;;1.30;;
5428;SDS011;2737;52.386;9.980;2023-03-18T15:07:56;2.90;;;1.93;;
5428;SDS011;2737;52.386;9.980;2023-03-18T15:10:26;2.57;;;1.30;;
5428;SDS011;2737;52.386;9.980;2023-03-18T15:13:00;2.00;;;1.47;;
5428;SDS011;2737;52.386;9.980;2023-03-18T15:15:31;1.53;;;1.10;;
5428;SDS011;2737;52.386;9.980;2023-03-18T15:18:01;1.77;;;1.37;;
5428;SDS011;2737;52.386;9.980;2023-03-18T15:20:36;3.57;;;1.60;;
5428;SDS011;2737;52.386;9.980;2023-03-18T15:23:04;3.40;;;1.30;;
5428;SDS011;2737;52.386;9.980;2023-03-18T15:25:35;3.83;;;1.53;;
5428;SDS011;2737;52.386;9.980;2023-03-18T15:28:05;3.70;;;1.50;;
5428;SDS011;2737;52.386;9.980;2023-03-18T15:30:32;2.40;;;1.57;;
5428;SDS011;2737;52.386;9.980;2023-03-18T15:33:00;5.90;;;1.57;;
5428;SDS011;2737;52.386;9.980;2023-03-18T15:35:29;3.33;;;1.80;;
5428;SDS011;2737;52.386;9.980;2023-03-18T15:40:47;3.70;;;1.67;;
5428;SDS011;2737;52.386;9.980;2023-03-18T15:43:18;2.60;;;1.57;;
5428;SDS011;2737;52.386;9.980;2023-03-18T15:45:56;2.33;;;1.33;;
5428;SDS011;2737;52.386;9.980;2023-03-18T15:48:26;3.10;;;1.83;;
5428;SDS011;2737;52.386;9.980;2023-03-18T15:50:59;1.70;;;1.60;;
5428;SDS011;2737;52.386;9.980;2023-03-18T15:53:32;1.70;;;1.40;;